createdAt,value
2023-05-02T00:01:55.281Z,94.30
2023-05-02T00:04:41.286Z,94.50
2023-05-02T00:07:26.808Z,94.10
2023-05-02T00:10:12.461Z,94.30
2023-05-02T00:12:57.853Z,94.40
2023-05-02T00:15:43.246Z,94.50
2023-05-02T00:18:28.750Z,94.30
2023-05-02T00:21:14.144Z,94.30
2023-05-02T00:24:00.125Z,94.10
2023-05-02T00:26:46.197Z,94.30
2023-05-02T00:29:31.681Z,94.10
2023-05-02T00:32:17.130Z,94.20
2023-05-02T00:35:02.242Z,94.20
2023-05-02T00:37:47.649Z,94.20
2023-05-02T00:40:43.736Z,94.00
2023-05-02T00:43:31.444Z,94.20
2023-05-02T00:46:16.897Z,94.30
2023-05-02T00:49:02.106Z,94.20
2023-05-02T00:51:47.773Z,94.10
2023-05-02T00:54:33.183Z,94.20
2023-05-02T00:57:18.418Z,94.30
2023-05-02T01:00:05.078Z,94.00
2023-05-02T01:03:09.492Z,94.00
2023-05-02T01:06:17.806Z,93.80
2023-05-02T01:09:22.127Z,93.90
2023-05-02T01:12:27.991Z,93.90
2023-05-02T01:15:18.360Z,94.50
2023-05-02T01:18:05.650Z,94.30
2023-05-02T01:21:00.538Z,94.50
2023-05-02T01:23:57.498Z,94.60
2023-05-02T01:27:11.561Z,94.80
2023-05-02T01:29:59.237Z,94.70
2023-05-02T01:32:48.486Z,94.90
2023-05-02T01:35:35.639Z,94.80
2023-05-02T01:38:22.758Z,94.70
2023-05-02T01:41:09.003Z,94.80
2023-05-02T01:43:57.745Z,94.60
2023-05-02T01:46:44.569Z,94.50
2023-05-02T01:49:31.796Z,94.60
2023-05-02T01:52:21.703Z,94.60
2023-05-02T01:55:12.135Z,94.60
2023-05-02T01:57:57.849Z,94.40
2023-05-02T02:00:45.544Z,94.60
2023-05-02T02:03:32.059Z,94.70
2023-05-02T02:06:19.176Z,95.10
2023-05-02T02:09:04.914Z,94.50
2023-05-02T02:11:57.533Z,94.70
2023-05-02T02:14:49.815Z,94.70
2023-05-02T02:17:43.247Z,94.50
2023-05-02T02:20:30.081Z,94.60
2023-05-02T02:23:16.501Z,94.60
2023-05-02T02:26:04.187Z,94.50
2023-05-02T02:28:49.501Z,94.40
2023-05-02T02:31:36.019Z,94.70
2023-05-02T02:34:22.113Z,94.60
2023-05-02T02:37:23.491Z,94.50
2023-05-02T02:40:16.604Z,94.60
2023-05-02T02:43:32.474Z,94.60
2023-05-02T02:46:45.119Z,94.60
2023-05-02T02:49:34.470Z,94.40
2023-05-02T02:52:42.107Z,94.80
2023-05-02T02:55:55.776Z,94.80
2023-05-02T02:59:18.634Z,94.80
2023-05-02T03:02:09.280Z,94.70
2023-05-02T03:04:56.140Z,94.70
2023-05-02T03:07:42.034Z,95.00
2023-05-02T03:10:27.197Z,95.40
2023-05-02T03:13:12.648Z,94.80
2023-05-02T03:16:29.112Z,95.10
2023-05-02T03:19:14.586Z,95.20
2023-05-02T03:22:00.236Z,94.90
2023-05-02T03:24:45.394Z,95.20
2023-05-02T03:27:31.915Z,95.40
2023-05-02T03:30:17.226Z,95.30
2023-05-02T03:33:04.749Z,95.10
2023-05-02T03:35:50.002Z,95.00
2023-05-02T03:38:35.634Z,95.20
2023-05-02T03:41:21.240Z,95.20
2023-05-02T03:44:06.639Z,95.20
2023-05-02T03:46:51.840Z,95.50
2023-05-02T03:49:38.047Z,95.40
2023-05-02T03:52:23.586Z,95.30
2023-05-02T03:55:09.115Z,95.50
2023-05-02T03:57:54.429Z,95.50
2023-05-02T04:00:39.992Z,95.40
2023-05-02T04:03:27.141Z,95.60
2023-05-02T04:06:14.096Z,95.60
2023-05-02T04:08:59.594Z,95.40
2023-05-02T04:11:44.760Z,95.60
2023-05-02T04:14:30.756Z,95.90
2023-05-02T04:17:16.088Z,95.90
2023-05-02T04:20:04.713Z,95.80
2023-05-02T04:22:50.748Z,96.10
2023-05-02T04:25:36.113Z,96.30
2023-05-02T04:28:22.158Z,96.30
2023-05-02T04:31:07.495Z,96.40
2023-05-02T04:33:52.792Z,96.30
2023-05-02T04:36:38.662Z,96.40
2023-05-02T04:39:23.668Z,96.60
2023-05-02T04:42:09.230Z,96.50
2023-05-02T04:44:54.727Z,96.60
2023-05-02T04:47:40.171Z,96.70
2023-05-02T04:50:25.993Z,96.70
2023-05-02T04:53:11.255Z,96.70
2023-05-02T04:55:57.066Z,96.60
2023-05-02T04:58:42.459Z,96.90
2023-05-02T05:01:28.207Z,96.80
2023-05-02T05:04:13.821Z,96.80
2023-05-02T05:06:59.669Z,96.60
2023-05-02T05:09:44.906Z,96.40
2023-05-02T05:12:30.309Z,96.40
2023-05-02T05:15:16.878Z,96.40
2023-05-02T05:18:02.480Z,96.20
2023-05-02T05:20:47.816Z,96.20
2023-05-02T05:23:34.217Z,96.10
2023-05-02T05:26:20.995Z,96.20
2023-05-02T05:29:05.909Z,96.20
2023-05-02T05:31:51.244Z,96.30
2023-05-02T05:34:37.633Z,96.40
2023-05-02T05:37:23.008Z,96.30
2023-05-02T05:40:09.237Z,96.30
2023-05-02T05:42:54.321Z,96.40
2023-05-02T05:45:39.785Z,96.40
2023-05-02T05:48:25.452Z,96.40
2023-05-02T05:51:10.716Z,96.30
2023-05-02T05:53:56.183Z,96.40
2023-05-02T05:56:41.457Z,96.50
2023-05-02T05:59:27.490Z,96.50
2023-05-02T06:02:13.017Z,96.40
2023-05-02T06:04:58.058Z,96.40
2023-05-02T06:07:43.444Z,96.70
2023-05-02T06:10:28.806Z,96.80
2023-05-02T06:13:14.088Z,96.40
2023-05-02T06:16:02.948Z,96.60
2023-05-02T06:18:51.651Z,96.60
2023-05-02T06:21:37.909Z,96.50
2023-05-02T06:24:23.156Z,96.70
2023-05-02T06:27:08.669Z,96.60
2023-05-02T06:29:54.304Z,96.50
2023-05-02T06:32:39.670Z,96.40
2023-05-02T06:35:25.004Z,96.50
2023-05-02T06:38:10.489Z,96.50
2023-05-02T06:40:56.355Z,96.40
2023-05-02T06:43:41.989Z,96.40
2023-05-02T06:46:30.249Z,96.60
2023-05-02T06:49:15.350Z,96.60
2023-05-02T06:52:00.878Z,96.80
2023-05-02T06:54:46.227Z,96.80
2023-05-02T06:57:31.753Z,96.70
2023-05-02T07:00:18.139Z,96.70
2023-05-02T07:03:03.835Z,97.00
2023-05-02T07:05:49.179Z,97.00
2023-05-02T07:08:34.488Z,97.40
2023-05-02T07:11:21.719Z,97.40
2023-05-02T07:14:07.279Z,97.10
2023-05-02T07:16:53.689Z,97.70
2023-05-02T07:19:39.140Z,97.40
2023-05-02T07:22:24.435Z,97.30
2023-05-02T07:25:10.317Z,97.60
2023-05-02T07:27:55.486Z,97.50
2023-05-02T07:30:40.857Z,97.40
2023-05-02T07:33:26.390Z,97.30
2023-05-02T07:36:11.777Z,97.50
2023-05-02T07:38:57.265Z,97.20
2023-05-02T07:41:42.914Z,97.50
2023-05-02T07:44:28.318Z,97.80
2023-05-02T07:47:13.759Z,97.60
2023-05-02T07:49:59.424Z,98.00
2023-05-02T07:52:45.156Z,98.10
2023-05-02T07:55:33.146Z,98.10
2023-05-02T07:58:18.643Z,98.10
2023-05-02T08:01:04.124Z,97.90
2023-05-02T08:03:49.791Z,97.80
2023-05-02T08:06:35.743Z,97.90
2023-05-02T08:09:21.351Z,98.20
2023-05-02T08:12:06.986Z,98.40
2023-05-02T08:14:52.440Z,98.60
2023-05-02T08:17:37.957Z,98.50
2023-05-02T08:20:23.575Z,98.50
2023-05-02T08:23:08.787Z,98.80
2023-05-02T08:25:54.486Z,98.70
2023-05-02T08:28:39.657Z,98.50
2023-05-02T08:31:25.074Z,98.40
2023-05-02T08:34:10.522Z,98.70
2023-05-02T08:36:58.268Z,98.50
2023-05-02T08:39:43.888Z,99.10
2023-05-02T08:42:32.423Z,99.00
2023-05-02T08:45:18.970Z,99.30
2023-05-02T08:48:10.338Z,99.30
2023-05-02T08:50:56.195Z,99.90
2023-05-02T08:53:42.387Z,99.90
2023-05-02T08:56:27.656Z,99.90
2023-05-02T08:59:12.989Z,99.90
2023-05-02T09:02:10.376Z,99.90
2023-05-02T09:04:59.445Z,99.80
2023-05-02T09:07:47.322Z,99.90
2023-05-02T09:10:36.496Z,99.90
2023-05-02T09:13:29.364Z,99.90
2023-05-02T09:16:25.470Z,99.90
2023-05-02T09:19:11.166Z,99.90
2023-05-02T09:22:03.638Z,99.90
2023-05-02T09:24:54.057Z,99.90
2023-05-02T09:27:56.314Z,99.90
2023-05-02T09:30:41.686Z,99.90
2023-05-02T09:33:27.893Z,99.50
2023-05-02T09:36:15.252Z,99.70
2023-05-02T09:39:10.683Z,99.90
2023-05-02T09:41:56.617Z,99.90
2023-05-02T09:44:43.043Z,98.60
2023-05-02T09:47:28.526Z,98.40
2023-05-02T09:50:36.236Z,98.50
2023-05-02T09:53:22.036Z,98.50
2023-05-02T09:56:08.127Z,98.70
2023-05-02T09:59:13.680Z,98.70
2023-05-02T10:02:01.126Z,98.50
2023-05-02T10:04:48.978Z,98.70
2023-05-02T10:07:34.944Z,97.70
2023-05-02T10:10:20.474Z,97.40
2023-05-02T10:13:06.792Z,97.40
2023-05-02T10:15:59.544Z,96.70
2023-05-02T10:19:02.653Z,96.40
2023-05-02T10:21:48.033Z,96.00
2023-05-02T10:24:33.732Z,96.00
2023-05-02T10:27:19.519Z,95.60
2023-05-02T10:30:06.477Z,95.50
2023-05-02T10:32:53.642Z,94.70
2023-05-02T10:35:43.665Z,94.10
2023-05-02T10:38:29.521Z,93.30
2023-05-02T10:41:19.182Z,94.40
2023-05-02T10:44:07.800Z,93.80
2023-05-02T10:46:53.892Z,92.60
2023-05-02T10:49:56.831Z,93.30
2023-05-02T10:52:41.853Z,92.40
2023-05-02T10:55:27.154Z,91.70
2023-05-02T10:58:22.335Z,91.30
2023-05-02T11:01:29.311Z,91.80
2023-05-02T11:04:14.817Z,92.50
2023-05-02T11:07:17.170Z,92.60
2023-05-02T11:10:17.858Z,92.60
2023-05-02T11:13:03.294Z,92.50
2023-05-02T11:15:51.595Z,91.80
2023-05-02T11:18:59.377Z,92.10
2023-05-02T11:21:44.494Z,92.60
2023-05-02T11:24:40.555Z,92.20
2023-05-02T11:27:32.042Z,92.20
2023-05-02T11:30:37.635Z,92.50
2023-05-02T11:33:23.438Z,92.40
2023-05-02T11:36:08.826Z,92.60
2023-05-02T11:38:54.293Z,92.80
2023-05-02T11:41:43.356Z,92.00
2023-05-02T11:44:28.479Z,92.30
2023-05-02T11:47:13.916Z,92.20
2023-05-02T11:50:02.110Z,91.60
2023-05-02T11:52:47.456Z,91.40
2023-05-02T11:55:32.863Z,91.10
2023-05-02T11:58:23.516Z,90.40
2023-05-02T12:01:16.339Z,90.60
2023-05-02T12:04:10.488Z,89.20
2023-05-02T12:06:57.267Z,89.20
2023-05-02T12:09:53.493Z,87.30
2023-05-02T12:12:40.955Z,89.20
2023-05-02T12:15:26.672Z,87.40
2023-05-02T12:18:13.577Z,87.90
2023-05-02T12:20:58.766Z,88.90
2023-05-02T12:23:44.531Z,89.00
2023-05-02T12:26:33.055Z,88.00
2023-05-02T12:29:18.789Z,88.80
2023-05-02T12:32:04.574Z,88.50
2023-05-02T12:34:50.068Z,86.90
2023-05-02T12:37:35.775Z,86.80
2023-05-02T12:40:21.081Z,86.80
2023-05-02T12:43:10.376Z,86.70
2023-05-02T12:46:11.208Z,86.90
2023-05-02T12:49:05.772Z,86.40
2023-05-02T12:52:02.496Z,85.40
2023-05-02T12:54:48.501Z,85.60
2023-05-02T12:57:34.234Z,84.10
2023-05-02T13:00:20.151Z,83.40
2023-05-02T13:03:06.886Z,83.80
2023-05-02T13:05:55.443Z,83.60
2023-05-02T13:08:40.438Z,79.50
2023-05-02T13:11:25.803Z,80.60
2023-05-02T13:14:11.548Z,80.50
2023-05-02T13:16:57.472Z,82.90
2023-05-02T13:20:01.081Z,81.10
2023-05-02T13:22:47.549Z,80.50
2023-05-02T13:25:33.016Z,80.20
2023-05-02T13:28:19.031Z,78.90
2023-05-02T13:31:04.552Z,78.10
2023-05-02T13:33:49.905Z,78.50
2023-05-02T13:36:36.349Z,77.00
2023-05-02T13:39:21.982Z,77.80
2023-05-02T13:42:07.967Z,77.20
2023-05-02T13:44:52.893Z,78.50
2023-05-02T13:47:39.441Z,76.60
2023-05-02T13:50:25.288Z,76.80
2023-05-02T13:53:11.246Z,76.50
2023-05-02T13:55:57.696Z,76.30
2023-05-02T13:58:43.044Z,77.00
2023-05-02T14:01:28.662Z,74.80
2023-05-02T14:04:14.371Z,76.10
2023-05-02T14:06:59.585Z,73.70
2023-05-02T14:09:45.085Z,74.00
2023-05-02T14:12:31.592Z,74.30
2023-05-02T14:15:16.837Z,73.30
2023-05-02T14:18:02.353Z,73.40
2023-05-02T14:20:47.575Z,72.50
2023-05-02T14:23:33.506Z,73.00
2023-05-02T14:26:20.366Z,71.50
2023-05-02T14:29:05.738Z,71.70
2023-05-02T14:31:51.166Z,72.60
2023-05-02T14:34:36.298Z,72.60
2023-05-02T14:37:21.787Z,72.50
2023-05-02T14:40:07.964Z,72.70
2023-05-02T14:42:53.039Z,70.20
2023-05-02T14:45:38.580Z,70.50
2023-05-02T14:48:23.932Z,71.70
2023-05-02T14:51:09.404Z,69.90
2023-05-02T14:53:54.702Z,71.90
2023-05-02T14:56:40.189Z,72.40
2023-05-02T14:59:29.142Z,72.20
2023-05-02T15:02:14.449Z,73.20
2023-05-02T15:05:00.259Z,72.60
2023-05-02T15:07:45.481Z,72.40
2023-05-02T15:10:30.794Z,73.20
2023-05-02T15:13:16.160Z,73.00
2023-05-02T15:16:01.550Z,74.00
2023-05-02T15:18:47.070Z,74.40
2023-05-02T15:21:32.786Z,75.00
2023-05-02T15:24:17.824Z,74.80
2023-05-02T15:27:03.684Z,74.40
2023-05-02T15:29:49.118Z,75.00
2023-05-02T15:32:34.747Z,74.60
2023-05-02T15:35:20.237Z,75.90
2023-05-02T15:38:06.577Z,76.30
2023-05-02T15:40:59.397Z,75.80
2023-05-02T15:43:44.904Z,75.90
2023-05-02T15:46:30.251Z,77.30
2023-05-02T15:49:15.856Z,76.50
2023-05-02T15:52:00.991Z,77.20
2023-05-02T15:54:46.891Z,77.30
2023-05-02T15:57:32.356Z,77.40
2023-05-02T16:00:17.967Z,76.90
2023-05-02T16:03:04.122Z,76.50
2023-05-02T16:05:52.746Z,78.10
2023-05-02T16:08:38.214Z,78.40
2023-05-02T16:11:23.594Z,77.50
2023-05-02T16:14:09.318Z,77.70
2023-05-02T16:16:56.020Z,77.30
2023-05-02T16:19:41.376Z,76.00
2023-05-02T16:22:28.214Z,77.20
2023-05-02T16:25:15.016Z,78.80
2023-05-02T16:28:01.009Z,78.30
2023-05-02T16:30:46.323Z,77.50
2023-05-02T16:33:31.624Z,78.70
2023-05-02T16:36:17.127Z,77.50
2023-05-02T16:39:02.350Z,78.50
2023-05-02T16:41:49.245Z,80.10
2023-05-02T16:44:34.697Z,79.30
2023-05-02T16:47:19.956Z,79.20
2023-05-02T16:50:06.215Z,79.00
2023-05-02T16:52:51.925Z,79.40
2023-05-02T16:55:37.250Z,79.80
2023-05-02T16:58:24.643Z,80.30
2023-05-02T17:01:10.304Z,80.50
2023-05-02T17:03:55.690Z,80.90
2023-05-02T17:06:41.242Z,81.00
2023-05-02T17:09:26.840Z,81.40
2023-05-02T17:12:12.783Z,82.40
2023-05-02T17:14:58.590Z,82.40
2023-05-02T17:17:44.246Z,82.60
2023-05-02T17:20:29.257Z,82.60
2023-05-02T17:23:14.679Z,82.70
2023-05-02T17:26:00.541Z,83.50
2023-05-02T17:28:46.103Z,84.60
2023-05-02T17:31:31.230Z,83.90
2023-05-02T17:34:16.568Z,85.00
2023-05-02T17:37:02.254Z,84.60
2023-05-02T17:39:47.897Z,84.70
2023-05-02T17:42:33.108Z,86.10
2023-05-02T17:45:18.556Z,85.60
2023-05-02T17:48:04.300Z,85.90
2023-05-02T17:50:50.947Z,85.40
2023-05-02T17:53:36.644Z,85.10
2023-05-02T17:56:22.396Z,85.90
2023-05-02T17:59:08.017Z,86.00
2023-05-02T18:01:53.554Z,85.60
2023-05-02T18:04:38.883Z,86.20
2023-05-02T18:07:24.340Z,85.80
2023-05-02T18:10:09.917Z,87.30
2023-05-02T18:12:55.426Z,86.40
2023-05-02T18:15:41.297Z,86.60
2023-05-02T18:18:26.484Z,87.70
2023-05-02T18:21:11.969Z,87.40
2023-05-02T18:23:57.566Z,87.70
2023-05-02T18:26:42.945Z,87.10
2023-05-02T18:29:28.219Z,87.60
2023-05-02T18:32:14.455Z,87.70
2023-05-02T18:35:00.452Z,87.50
2023-05-02T18:37:46.433Z,87.90
2023-05-02T18:40:32.364Z,88.40
2023-05-02T18:43:17.628Z,89.10
2023-05-02T18:46:03.271Z,88.50
2023-05-02T18:48:48.872Z,88.50
2023-05-02T18:51:33.979Z,88.70
2023-05-02T18:54:19.692Z,88.40
2023-05-02T18:57:05.063Z,88.50
2023-05-02T18:59:50.301Z,88.60
2023-05-02T19:02:35.690Z,90.00
2023-05-02T19:05:21.198Z,89.50
2023-05-02T19:08:07.640Z,87.40
2023-05-02T19:10:52.782Z,87.90
2023-05-02T19:13:38.712Z,87.60
2023-05-02T19:16:25.640Z,88.70
2023-05-02T19:19:10.886Z,88.40
2023-05-02T19:21:56.573Z,87.80
2023-05-02T19:24:41.444Z,87.90
2023-05-02T19:27:27.057Z,88.20
2023-05-02T19:30:13.640Z,88.50
2023-05-02T19:32:59.662Z,88.20
2023-05-02T19:35:45.205Z,88.90
2023-05-02T19:38:30.615Z,88.50
2023-05-02T19:41:17.155Z,88.60
2023-05-02T19:44:02.594Z,88.50
2023-05-02T19:46:48.273Z,88.50
2023-05-02T19:49:33.610Z,88.60
2023-05-02T19:52:19.046Z,88.80
2023-05-02T19:55:05.277Z,89.20
2023-05-02T19:57:50.346Z,89.10
2023-05-02T20:00:36.011Z,90.00
2023-05-02T20:03:22.283Z,89.30
2023-05-02T20:06:07.844Z,89.30
2023-05-02T20:08:53.209Z,88.90
2023-05-02T20:11:38.774Z,89.20
2023-05-02T20:14:24.097Z,89.50
2023-05-02T20:17:09.508Z,89.40
2023-05-02T20:19:54.793Z,89.60
2023-05-02T20:22:40.549Z,89.50
2023-05-02T20:25:25.820Z,90.00
2023-05-02T20:28:11.243Z,90.10
2023-05-02T20:30:56.478Z,90.00
2023-05-02T20:33:45.807Z,89.90
2023-05-02T20:36:32.246Z,89.80
2023-05-02T20:39:20.780Z,89.50
2023-05-02T20:42:06.118Z,90.00
2023-05-02T20:44:58.465Z,90.10
2023-05-02T20:47:43.766Z,90.10
2023-05-02T20:50:29.243Z,90.20
2023-05-02T20:53:14.485Z,90.30
2023-05-02T20:56:00.154Z,90.40
2023-05-02T20:58:45.479Z,90.50
2023-05-02T21:01:30.916Z,90.40
2023-05-02T21:04:16.603Z,90.70
2023-05-02T21:07:03.095Z,90.50
2023-05-02T21:09:48.668Z,90.30
2023-05-02T21:12:33.901Z,90.40
2023-05-02T21:15:19.321Z,90.40
2023-05-02T21:18:05.270Z,90.20
2023-05-02T21:20:50.746Z,90.30
2023-05-02T21:23:36.329Z,90.20
2023-05-02T21:26:21.504Z,90.40
2023-05-02T21:29:07.339Z,90.30
2023-05-02T21:31:54.681Z,90.30
2023-05-02T21:34:40.297Z,90.30
2023-05-02T21:37:26.018Z,90.50
2023-05-02T21:40:11.960Z,90.60
2023-05-02T21:42:57.250Z,90.60
2023-05-02T21:45:50.122Z,90.90
2023-05-02T21:48:35.054Z,90.80
2023-05-02T21:51:20.551Z,90.80
2023-05-02T21:54:07.291Z,90.70
2023-05-02T21:56:55.812Z,90.90
2023-05-02T21:59:43.108Z,90.80
2023-05-02T22:02:28.627Z,90.60
2023-05-02T22:05:14.304Z,90.60
2023-05-02T22:08:00.730Z,90.50
2023-05-02T22:10:46.000Z,90.20
2023-05-02T22:13:31.478Z,89.90
2023-05-02T22:16:17.220Z,90.00
2023-05-02T22:19:02.357Z,90.20
2023-05-02T22:21:47.695Z,90.10
2023-05-02T22:24:33.564Z,89.50
2023-05-02T22:27:19.126Z,89.40
2023-05-02T22:30:05.393Z,89.70
2023-05-02T22:32:50.473Z,89.60
2023-05-02T22:35:39.132Z,90.40
2023-05-02T22:38:24.184Z,89.80
2023-05-02T22:41:09.851Z,89.10
2023-05-02T22:43:54.952Z,90.10
2023-05-02T22:46:40.477Z,89.80
2023-05-02T22:49:28.436Z,90.00
2023-05-02T22:52:14.347Z,90.40
2023-05-02T22:55:00.347Z,89.70
2023-05-02T22:57:45.884Z,89.70
2023-05-02T23:00:31.167Z,89.70
2023-05-02T23:03:16.783Z,89.20
2023-05-02T23:06:02.059Z,89.40
2023-05-02T23:08:47.346Z,89.70
2023-05-02T23:11:32.539Z,89.70
2023-05-02T23:14:20.570Z,89.50
2023-05-02T23:17:05.940Z,89.30
2023-05-02T23:19:51.283Z,90.20
2023-05-02T23:22:39.466Z,90.10
2023-05-02T23:25:27.307Z,90.00
2023-05-02T23:28:12.834Z,90.10
2023-05-02T23:30:58.482Z,90.10
2023-05-02T23:33:43.946Z,90.10
2023-05-02T23:36:29.142Z,90.00
2023-05-02T23:39:14.679Z,89.80
2023-05-02T23:42:00.728Z,89.90
2023-05-02T23:44:47.053Z,90.10
2023-05-02T23:47:32.133Z,90.10
2023-05-02T23:50:18.312Z,90.40
2023-05-02T23:53:03.396Z,90.30
2023-05-02T23:55:48.730Z,90.00
2023-05-02T23:58:34.145Z,90.30
